Time;durP1;ratioP1;P1;durP2;ratioP2;P2;SDS_P1;SDS_P2;PMS_P1;PMS_P2;Temp;Humidity;BMP_temperature;BMP_pressure;BME280_temperature;BME280_humidity;BME280_pressure;Samples;Min_cycle;Max_cycle;Signal;HPM_P1;HPM_P2
2023/05/28 00:00:08;;;;;;;5.82;3.35;;;12.60;99.90;;;;;;5003942;28;20053;-72
2023/05/28 00:02:34;;;;;;;5.88;2.97;;;12.60;99.90;;;;;;5003764;28;20060;-72
2023/05/28 00:05:00;;;;;;;11.20;3.42;;;12.60;99.90;;;;;;5003316;28;20097;-72
2023/05/28 00:07:28;;;;;;;15.15;3.45;;;12.60;99.90;;;;;;5002167;28;20104;-72
2023/05/28 00:09:55;;;;;;;8.20;2.67;;;12.60;99.90;;;;;;5000769;28;20053;-73
2023/05/28 00:12:21;;;;;;;8.32;3.15;;;12.50;99.90;;;;;;5003617;28;20042;-71
2023/05/28 00:14:47;;;;;;;5.65;2.67;;;12.50;99.90;;;;;;5002833;28;20052;-72
2023/05/28 00:17:13;;;;;;;6.15;2.95;;;12.50;99.90;;;;;;5001808;28;20443;-72
2023/05/28 00:19:39;;;;;;;12.48;3.25;;;12.50;99.90;;;;;;5002095;28;20352;-72
2023/05/28 00:22:05;;;;;;;5.55;2.20;;;12.50;99.90;;;;;;5002768;28;20083;-72
2023/05/28 00:24:30;;;;;;;6.10;2.53;;;12.50;99.90;;;;;;5001236;28;20484;-72
2023/05/28 00:26:56;;;;;;;8.73;3.00;;;12.50;99.90;;;;;;5002652;28;20431;-72
2023/05/28 00:29:21;;;;;;;4.60;2.05;;;12.50;99.90;;;;;;5001660;28;20048;-71
2023/05/28 00:31:47;;;;;;;14.35;3.97;;;12.50;99.90;;;;;;5002501;28;20034;-71
2023/05/28 00:34:12;;;;;;;6.93;2.25;;;12.50;99.90;;;;;;5002227;28;20038;-72
2023/05/28 00:36:38;;;;;;;6.35;3.50;;;12.40;99.90;;;;;;5003251;28;20722;-72
2023/05/28 00:39:04;;;;;;;9.68;2.85;;;12.40;99.90;;;;;;5002439;28;20065;-74
2023/05/28 00:41:30;;;;;;;10.70;3.30;;;12.40;99.90;;;;;;5003575;28;20637;-72
2023/05/28 00:43:56;;;;;;;12.70;3.13;;;12.40;99.90;;;;;;4985436;28;20049;-71
2023/05/28 00:46:23;;;;;;;6.68;2.33;;;12.30;99.90;;;;;;5002554;28;20103;-72
2023/05/28 00:48:50;;;;;;;7.28;3.90;;;12.30;99.90;;;;;;5003130;28;20052;-72
2023/05/28 00:51:16;;;;;;;9.93;2.55;;;12.20;99.90;;;;;;5006519;28;20089;-72
2023/05/28 00:53:42;;;;;;;4.57;2.88;;;12.30;99.90;;;;;;5005751;28;20061;-73
2023/05/28 00:56:12;;;;;;;9.85;3.33;;;12.20;99.90;;;;;;5004136;28;20046;-72
2023/05/28 00:58:42;;;;;;;3.95;3.55;;;12.20;99.90;;;;;;5005283;28;20038;-72
2023/05/28 01:01:09;;;;;;;5.22;2.78;;;12.20;99.90;;;;;;5004856;28;20064;-72
2023/05/28 01:03:38;;;;;;;6.82;2.45;;;12.20;99.90;;;;;;5006561;28;20595;-72
2023/05/28 01:06:11;;;;;;;5.53;3.00;;;12.20;99.90;;;;;;5006307;28;20054;-72
2023/05/28 01:08:37;;;;;;;11.02;3.58;;;12.20;99.90;;;;;;5006420;28;20042;-72
2023/05/28 01:11:05;;;;;;;7.68;2.58;;;12.20;99.90;;;;;;5004886;28;20064;-72
2023/05/28 01:13:31;;;;;;;10.80;3.90;;;12.10;99.90;;;;;;5004525;28;20038;-72
2023/05/28 01:15:58;;;;;;;6.80;2.38;;;12.10;99.90;;;;;;5004643;28;20057;-72
2023/05/28 01:18:24;;;;;;;3.90;2.72;;;12.10;99.90;;;;;;5006143;28;20033;-72
2023/05/28 01:20:50;;;;;;;7.13;2.88;;;12.10;99.90;;;;;;5004532;28;20071;-72
2023/05/28 01:23:20;;;;;;;6.75;3.47;;;12.10;99.90;;;;;;5005806;28;20025;-72
2023/05/28 01:25:50;;;;;;;4.10;2.55;;;12.10;99.90;;;;;;5004395;28;20049;-72
2023/05/28 01:28:16;;;;;;;6.35;2.78;;;12.10;99.90;;;;;;5006010;28;20042;-72
2023/05/28 01:30:46;;;;;;;10.15;3.20;;;12.10;99.90;;;;;;4998023;28;20057;-72
2023/05/28 01:33:13;;;;;;;5.43;2.53;;;12.10;99.90;;;;;;4998660;28;20042;-72
2023/05/28 01:35:40;;;;;;;6.43;2.40;;;12.00;99.90;;;;;;5004497;28;20081;-72
2023/05/28 01:38:08;;;;;;;16.65;3.63;;;12.10;99.90;;;;;;5005972;28;20074;-72
2023/05/28 01:40:36;;;;;;;12.68;3.20;;;12.10;99.90;;;;;;5003792;28;20046;-71
2023/05/28 01:43:02;;;;;;;5.45;3.20;;;12.00;99.90;;;;;;5005348;28;20052;-72
2023/05/28 01:45:29;;;;;;;8.98;2.97;;;12.10;99.90;;;;;;5005465;28;20057;-72
2023/05/28 01:47:55;;;;;;;9.70;3.95;;;12.10;99.90;;;;;;5004443;28;20045;-71
2023/05/28 01:50:20;;;;;;;5.10;2.70;;;12.10;99.90;;;;;;5004428;28;20053;-71
2023/05/28 01:52:46;;;;;;;6.72;3.17;;;12.10;99.90;;;;;;5005083;28;20034;-72
2023/05/28 01:55:13;;;;;;;10.40;2.90;;;12.10;99.90;;;;;;4986698;28;20046;-71
2023/05/28 01:57:39;;;;;;;8.52;3.20;;;12.10;99.90;;;;;;5005955;28;20101;-71
2023/05/28 02:00:06;;;;;;;7.15;3.95;;;12.00;99.90;;;;;;4987999;28;20057;-73
2023/05/28 02:02:31;;;;;;;8.13;3.35;;;12.00;99.90;;;;;;5004942;28;20049;-72
2023/05/28 02:04:57;;;;;;;8.23;2.35;;;12.00;99.90;;;;;;5004925;28;20568;-72
2023/05/28 02:07:23;;;;;;;7.70;3.28;;;12.00;99.90;;;;;;5005602;28;20042;-72
2023/05/28 02:09:49;;;;;;;9.43;2.88;;;12.00;99.90;;;;;;5002911;28;20050;-72
2023/05/28 02:12:15;;;;;;;5.20;2.58;;;12.10;99.90;;;;;;5004703;28;20384;-72
2023/05/28 02:14:42;;;;;;;7.10;2.80;;;12.00;99.90;;;;;;5005209;28;20042;-71
2023/05/28 02:17:08;;;;;;;13.70;3.47;;;12.00;99.90;;;;;;5005581;28;20503;-72
2023/05/28 02:19:34;;;;;;;9.82;3.47;;;12.10;99.90;;;;;;5004367;28;20100;-73
2023/05/28 02:22:00;;;;;;;13.65;3.42;;;12.10;99.90;;;;;;5003327;28;20062;-72
2023/05/28 02:24:25;;;;;;;11.27;4.47;;;12.10;99.90;;;;;;5002997;28;20065;-72
2023/05/28 02:26:51;;;;;;;7.93;3.08;;;12.00;99.90;;;;;;5004861;28;20053;-72
2023/05/28 02:29:17;;;;;;;10.45;3.88;;;12.00;99.90;;;;;;5003383;28;20045;-71
2023/05/28 02:31:42;;;;;;;15.13;3.88;;;12.10;99.90;;;;;;5004313;28;20053;-72
2023/05/28 02:34:08;;;;;;;11.65;3.13;;;12.10;99.90;;;;;;5005182;28;20038;-72
2023/05/28 02:36:35;;;;;;;8.60;4.13;;;12.00;99.90;;;;;;5004941;28;20088;-72
2023/05/28 02:39:02;;;;;;;6.53;3.05;;;12.00;99.90;;;;;;5003487;28;20057;-72
2023/05/28 02:41:27;;;;;;;12.25;3.38;;;12.10;99.90;;;;;;5004358;28;20047;-72
2023/05/28 02:43:53;;;;;;;5.40;3.05;;;12.00;99.90;;;;;;5002919;28;20603;-72
2023/05/28 02:46:19;;;;;;;8.13;3.13;;;12.00;99.90;;;;;;4993533;28;20046;-71
2023/05/28 02:48:45;;;;;;;13.20;3.17;;;12.00;99.90;;;;;;4985114;28;20034;-71
2023/05/28 02:51:11;;;;;;;9.57;3.00;;;12.00;99.90;;;;;;4983683;28;20425;-73
2023/05/28 02:53:36;;;;;;;7.80;3.42;;;12.00;99.90;;;;;;4985655;28;20073;-72
2023/05/28 02:56:03;;;;;;;5.90;3.22;;;12.00;99.90;;;;;;4982427;28;20485;-72
2023/05/28 02:58:30;;;;;;;7.72;2.88;;;12.00;99.90;;;;;;4989404;28;20084;-71
2023/05/28 03:00:56;;;;;;;6.78;3.88;;;12.00;99.90;;;;;;5003153;28;20434;-72
2023/05/28 03:03:22;;;;;;;6.18;2.40;;;12.00;99.90;;;;;;5004206;28;20136;-72
2023/05/28 03:05:49;;;;;;;6.53;2.67;;;12.00;99.90;;;;;;5004069;28;20128;-71
2023/05/28 03:08:14;;;;;;;7.53;3.28;;;11.90;99.90;;;;;;5003040;28;20050;-73
2023/05/28 03:10:40;;;;;;;9.02;4.07;;;11.90;99.90;;;;;;5001646;28;20053;-73
2023/05/28 03:13:06;;;;;;;10.65;3.03;;;12.00;99.90;;;;;;5002247;28;20136;-71
2023/05/28 03:15:31;;;;;;;7.38;2.92;;;11.90;99.90;;;;;;5004227;28;20400;-72
2023/05/28 03:17:57;;;;;;;4.70;3.03;;;11.90;99.90;;;;;;5003939;28;20061;-71
2023/05/28 03:20:23;;;;;;;9.18;3.10;;;11.90;99.90;;;;;;5002501;28;20093;-73
2023/05/28 03:22:54;;;;;;;7.45;2.92;;;11.90;99.90;;;;;;5003729;28;20037;-72
2023/05/28 03:25:20;;;;;;;8.32;3.20;;;11.90;99.90;;;;;;5002522;28;20092;-71
2023/05/28 03:27:45;;;;;;;9.13;3.05;;;11.90;99.90;;;;;;5002420;28;20550;-72
2023/05/28 03:30:11;;;;;;;11.38;2.83;;;11.90;99.90;;;;;;5003615;28;20088;-72
2023/05/28 03:32:37;;;;;;;4.68;2.95;;;11.90;99.90;;;;;;5004106;28;20034;-72
2023/05/28 03:35:03;;;;;;;4.88;2.15;;;11.90;99.90;;;;;;5002568;28;20041;-72
2023/05/28 03:37:29;;;;;;;9.88;2.55;;;11.90;99.90;;;;;;5003819;28;20551;-72
2023/05/28 03:39:54;;;;;;;8.18;2.72;;;11.90;99.90;;;;;;5002604;28;20058;-72
2023/05/28 03:42:20;;;;;;;6.40;2.92;;;11.90;99.90;;;;;;5003819;28;20046;-72
2023/05/28 03:44:46;;;;;;;6.32;3.25;;;11.90;99.90;;;;;;5003832;28;20519;-71
2023/05/28 03:47:12;;;;;;;6.90;2.70;;;11.90;99.90;;;;;;5003146;28;20610;-72
2023/05/28 03:49:38;;;;;;;7.25;3.42;;;11.80;99.90;;;;;;4999035;28;20057;-72
2023/05/28 03:52:04;;;;;;;7.35;2.90;;;11.80;99.90;;;;;;4982508;28;20516;-71
2023/05/28 03:54:31;;;;;;;7.30;2.88;;;11.80;99.90;;;;;;4993544;28;20046;-72
2023/05/28 03:56:57;;;;;;;7.20;3.42;;;11.80;99.90;;;;;;5001708;28;20088;-72
2023/05/28 03:59:22;;;;;;;7.75;3.25;;;11.80;99.90;;;;;;5002474;28;20077;-72
2023/05/28 04:01:48;;;;;;;7.13;2.60;;;11.80;99.90;;;;;;5003022;28;20442;-71
2023/05/28 04:04:13;;;;;;;12.05;2.47;;;11.80;99.90;;;;;;5002466;28;20046;-72
2023/05/28 04:06:39;;;;;;;4.32;2.03;;;11.80;99.90;;;;;;5003950;28;20038;-72
2023/05/28 04:09:05;;;;;;;5.57;2.22;;;11.80;99.90;;;;;;5003050;28;20044;-72
2023/05/28 04:11:31;;;;;;;6.10;2.75;;;11.80;99.90;;;;;;5003167;28;20046;-72
2023/05/28 04:13:56;;;;;;;6.55;2.92;;;11.80;99.90;;;;;;5002165;28;20042;-71
2023/05/28 04:16:23;;;;;;;6.53;2.80;;;11.80;99.90;;;;;;5003162;28;20121;-72
2023/05/28 04:18:51;;;;;;;7.80;3.17;;;11.80;99.90;;;;;;5003289;28;20085;-72
2023/05/28 04:21:17;;;;;;;6.13;2.60;;;11.80;99.90;;;;;;4985651;28;20081;-71
2023/05/28 04:23:42;;;;;;;4.07;2.33;;;11.80;99.90;;;;;;5001601;28;20084;-72
2023/05/28 04:26:09;;;;;;;5.10;1.83;;;11.80;99.90;;;;;;5007766;28;20576;-72
2023/05/28 04:28:35;;;;;;;8.18;2.65;;;11.80;99.90;;;;;;5007120;28;20721;-72
2023/05/28 04:31:01;;;;;;;7.68;2.72;;;11.80;99.90;;;;;;5007045;28;20077;-72
2023/05/28 04:33:28;;;;;;;8.50;2.72;;;11.80;99.90;;;;;;5007310;28;20041;-72
2023/05/28 04:35:55;;;;;;;5.82;2.22;;;11.80;99.90;;;;;;5006391;28;20089;-72
2023/05/28 04:38:21;;;;;;;7.88;2.40;;;11.90;99.90;;;;;;5007057;28;20065;-71
2023/05/28 04:40:46;;;;;;;10.98;2.67;;;11.80;99.90;;;;;;5005220;28;20088;-72
2023/05/28 04:43:12;;;;;;;8.80;3.05;;;11.80;99.90;;;;;;4974770;28;20042;-72
2023/05/28 04:45:37;;;;;;;4.90;2.78;;;11.80;99.90;;;;;;4990412;28;20042;-72
2023/05/28 04:48:04;;;;;;;10.25;4.13;;;11.80;99.90;;;;;;4987045;28;20514;-72
2023/05/28 04:50:30;;;;;;;9.48;3.70;;;11.80;99.90;;;;;;4990328;28;20045;-72
2023/05/28 04:52:56;;;;;;;8.35;3.45;;;11.80;99.90;;;;;;5006858;28;20084;-71
2023/05/28 04:55:22;;;;;;;12.25;4.35;;;11.90;99.90;;;;;;4988359;28;20444;-73
2023/05/28 04:57:48;;;;;;;11.30;3.88;;;11.90;99.90;;;;;;5005841;28;20499;-73
2023/05/28 05:00:13;;;;;;;9.98;3.63;;;11.90;99.90;;;;;;5005077;28;20080;-71
2023/05/28 05:02:41;;;;;;;10.23;3.67;;;11.90;99.90;;;;;;5007456;28;20065;-71
2023/05/28 05:05:07;;;;;;;8.90;2.88;;;11.90;99.90;;;;;;5006787;28;20713;-71
2023/05/28 05:07:37;;;;;;;10.48;3.67;;;12.00;99.90;;;;;;5004908;28;20072;-72
2023/05/28 05:10:10;;;;;;;5.78;3.15;;;12.00;99.90;;;;;;5004970;28;20578;-72
2023/05/28 05:12:36;;;;;;;10.25;3.50;;;12.00;99.90;;;;;;5006300;28;20049;-71
2023/05/28 05:15:03;;;;;;;6.85;2.95;;;12.10;99.90;;;;;;5005058;28;20056;-71
2023/05/28 05:17:28;;;;;;;7.00;3.42;;;12.10;99.90;;;;;;5005928;28;20068;-72
2023/05/28 05:19:55;;;;;;;10.48;4.40;;;12.10;99.90;;;;;;5004483;28;20034;-72
2023/05/28 05:22:20;;;;;;;7.13;3.03;;;12.20;99.90;;;;;;5005100;28;20111;-71
2023/05/28 05:24:48;;;;;;;7.25;2.70;;;12.20;99.90;;;;;;5003952;28;20496;-71
2023/05/28 05:27:13;;;;;;;8.93;3.80;;;12.20;99.90;;;;;;5004501;28;20058;-72
2023/05/28 05:29:39;;;;;;;8.07;3.33;;;12.20;99.90;;;;;;5005030;28;20127;-72
2023/05/28 05:32:05;;;;;;;6.55;3.70;;;12.30;99.90;;;;;;5006157;28;20041;-72
2023/05/28 05:34:30;;;;;;;5.57;2.65;;;12.30;99.90;;;;;;5005895;28;20052;-72
2023/05/28 05:36:58;;;;;;;12.38;3.90;;;12.30;99.90;;;;;;5005284;28;20033;-73
2023/05/28 05:39:23;;;;;;;7.55;2.67;;;12.40;99.90;;;;;;5004723;28;20053;-72
2023/05/28 05:41:49;;;;;;;8.27;4.18;;;12.40;99.90;;;;;;5004062;28;20049;-72
2023/05/28 05:44:15;;;;;;;10.82;3.20;;;12.40;99.90;;;;;;5004431;28;20117;-71
2023/05/28 05:46:40;;;;;;;7.35;3.20;;;12.40;99.90;;;;;;5000156;28;20042;-72
2023/05/28 05:49:06;;;;;;;9.57;3.97;;;12.50;99.90;;;;;;4998368;28;20112;-73
2023/05/28 05:51:32;;;;;;;9.30;3.20;;;12.50;99.90;;;;;;4986224;28;20053;-71
2023/05/28 05:53:57;;;;;;;7.32;2.90;;;12.50;99.90;;;;;;4985404;28;20453;-71
2023/05/28 05:56:25;;;;;;;10.77;3.78;;;12.60;99.90;;;;;;4985876;28;20053;-72
2023/05/28 05:58:51;;;;;;;13.90;3.33;;;12.60;99.90;;;;;;4985685;28;20336;-71
2023/05/28 06:01:16;;;;;;;5.38;3.33;;;12.70;99.90;;;;;;4992094;28;20042;-71
2023/05/28 06:03:42;;;;;;;7.05;4.50;;;12.70;99.90;;;;;;5004186;28;20054;-71
2023/05/28 06:06:08;;;;;;;9.48;2.67;;;12.70;99.90;;;;;;5006062;28;20046;-72
2023/05/28 06:08:34;;;;;;;9.70;3.88;;;12.70;99.90;;;;;;5003014;28;20045;-72
2023/05/28 06:11:00;;;;;;;5.10;3.13;;;12.80;99.90;;;;;;5003722;28;20050;-72
2023/05/28 06:13:26;;;;;;;8.27;3.75;;;12.80;99.90;;;;;;4988143;28;20049;-71
2023/05/28 06:15:51;;;;;;;5.45;2.72;;;12.90;99.90;;;;;;5003916;28;20561;-73
2023/05/28 06:18:17;;;;;;;8.10;3.33;;;12.90;99.90;;;;;;5004914;28;20121;-72
2023/05/28 06:20:42;;;;;;;7.18;3.78;;;12.90;99.90;;;;;;5003138;28;20120;-71
2023/05/28 06:23:08;;;;;;;5.82;2.80;;;12.90;99.90;;;;;;5004933;28;20412;-72
2023/05/28 06:25:35;;;;;;;6.22;2.50;;;13.00;99.90;;;;;;5004357;28;20504;-72
2023/05/28 06:28:04;;;;;;;3.63;2.00;;;13.00;99.90;;;;;;5004804;28;20646;-73
2023/05/28 06:30:29;;;;;;;3.90;1.60;;;13.10;99.90;;;;;;4987199;28;20442;-71
2023/05/28 06:32:55;;;;;;;4.90;1.95;;;13.00;99.90;;;;;;5004706;28;20129;-73
2023/05/28 06:35:21;;;;;;;4.15;1.38;;;13.10;99.90;;;;;;5003792;28;20729;-72
2023/05/28 06:37:46;;;;;;;3.30;2.05;;;13.10;99.90;;;;;;5003358;28;20100;-72
2023/05/28 06:40:12;;;;;;;7.00;1.88;;;13.10;99.90;;;;;;5003937;28;20046;-72
2023/05/28 06:42:38;;;;;;;9.05;2.90;;;13.10;99.90;;;;;;5005469;28;20515;-72
2023/05/28 06:45:04;;;;;;;7.03;1.95;;;13.20;99.90;;;;;;5002801;28;20034;-72
2023/05/28 06:47:30;;;;;;;2.38;1.65;;;13.20;99.90;;;;;;5003424;28;20045;-72
2023/05/28 06:49:56;;;;;;;5.57;2.42;;;13.20;99.90;;;;;;5004364;28;20129;-72
2023/05/28 06:52:23;;;;;;;4.78;1.88;;;13.30;99.90;;;;;;5003400;28;20050;-71
2023/05/28 06:54:49;;;;;;;5.43;2.28;;;13.30;99.90;;;;;;5003184;28;20459;-72
2023/05/28 06:57:14;;;;;;;4.70;1.70;;;13.30;99.90;;;;;;5004091;28;20038;-72
2023/05/28 06:59:40;;;;;;;10.57;2.58;;;13.30;99.90;;;;;;4986007;28;20165;-73
2023/05/28 07:02:05;;;;;;;7.20;2.58;;;13.30;99.90;;;;;;5003545;28;20045;-71
2023/05/28 07:04:31;;;;;;;3.97;2.22;;;13.40;99.90;;;;;;5002268;28;20742;-72
2023/05/28 07:06:58;;;;;;;7.72;2.40;;;13.40;99.90;;;;;;5002195;28;20136;-73
2023/05/28 07:09:23;;;;;;;5.35;3.08;;;13.40;99.90;;;;;;4993774;28;20128;-72
2023/05/28 07:11:49;;;;;;;5.07;2.35;;;13.50;99.90;;;;;;5003311;28;20818;-71
2023/05/28 07:14:14;;;;;;;9.77;2.53;;;13.50;99.90;;;;;;5004287;28;20044;-73
2023/05/28 07:16:41;;;;;;;3.97;2.15;;;13.50;99.90;;;;;;5001683;28;20049;-72
2023/05/28 07:19:06;;;;;;;5.35;1.83;;;13.60;99.90;;;;;;5003839;28;20121;-72
2023/05/28 07:21:32;;;;;;;6.35;2.70;;;13.60;99.90;;;;;;5004124;28;20128;-71
2023/05/28 07:23:58;;;;;;;3.88;1.90;;;13.60;99.90;;;;;;4999191;28;20412;-72
2023/05/28 07:26:25;;;;;;;6.18;2.20;;;13.70;99.90;;;;;;4998200;28;20046;-73
2023/05/28 07:28:50;;;;;;;5.78;1.83;;;13.70;99.90;;;;;;5003077;28;20099;-72
2023/05/28 07:31:16;;;;;;;6.90;2.35;;;13.70;99.90;;;;;;4986311;28;20042;-72
2023/05/28 07:33:42;;;;;;;5.93;2.38;;;13.80;99.90;;;;;;5002545;28;20045;-73
2023/05/28 07:36:08;;;;;;;4.50;1.98;;;13.80;99.90;;;;;;5001959;28;20199;-72
2023/05/28 07:38:34;;;;;;;3.22;1.58;;;13.80;99.90;;;;;;4999566;28;20065;-72
2023/05/28 07:41:00;;;;;;;6.72;1.25;;;13.80;99.90;;;;;;4991352;28;20081;-72
2023/05/28 07:43:25;;;;;;;2.72;1.40;;;13.80;99.90;;;;;;4999959;28;20038;-72
2023/05/28 07:45:51;;;;;;;3.45;1.40;;;13.90;99.90;;;;;;5001676;28;20504;-73
2023/05/28 07:48:17;;;;;;;4.13;1.67;;;13.90;99.90;;;;;;5001128;28;20615;-73
2023/05/28 07:50:43;;;;;;;2.88;1.45;;;13.90;99.90;;;;;;4994702;28;20457;-74
2023/05/28 07:53:08;;;;;;;1.75;1.23;;;14.00;99.90;;;;;;4987813;28;20079;-72
2023/05/28 07:55:34;;;;;;;2.53;0.98;;;14.00;99.90;;;;;;4991734;28;20042;-72
2023/05/28 07:58:00;;;;;;;1.50;1.30;;;14.00;99.90;;;;;;5001583;28;20092;-73
2023/05/28 08:00:26;;;;;;;3.28;1.45;;;14.00;99.90;;;;;;5002204;28;20544;-73
2023/05/28 08:02:52;;;;;;;2.10;1.02;;;14.10;99.90;;;;;;5002970;28;20085;-74
2023/05/28 08:05:18;;;;;;;3.25;1.48;;;14.10;99.90;;;;;;5002721;28;20124;-72
2023/05/28 08:07:44;;;;;;;6.70;1.73;;;14.20;99.90;;;;;;4994061;28;20563;-73
2023/05/28 08:10:11;;;;;;;4.20;1.50;;;14.20;99.90;;;;;;4990871;28;20050;-73
2023/05/28 08:12:36;;;;;;;5.72;1.88;;;14.30;99.90;;;;;;4992497;28;20046;-73
2023/05/28 08:15:05;;;;;;;2.75;1.55;;;14.30;99.90;;;;;;4995380;28;20046;-76
2023/05/28 08:17:31;;;;;;;5.65;2.17;;;14.30;99.90;;;;;;5002090;28;20038;-73
2023/05/28 08:19:57;;;;;;;2.25;1.35;;;14.30;99.90;;;;;;5001000;28;20049;-71
2023/05/28 08:22:23;;;;;;;3.55;1.88;;;14.40;99.90;;;;;;5000850;28;20420;-74
2023/05/28 08:24:49;;;;;;;3.15;1.70;;;14.40;99.90;;;;;;5002148;28;20042;-73
2023/05/28 08:27:14;;;;;;;4.20;2.08;;;14.40;99.90;;;;;;5002033;28;20275;-73
2023/05/28 08:29:40;;;;;;;6.40;1.60;;;14.40;99.90;;;;;;5002654;28;20053;-73
2023/05/28 08:32:06;;;;;;;5.47;1.35;;;14.50;99.90;;;;;;5000511;28;20065;-72
2023/05/28 08:34:34;;;;;;;5.80;2.45;;;14.50;99.90;;;;;;5000665;28;20465;-72
2023/05/28 08:37:00;;;;;;;3.30;2.33;;;14.50;99.90;;;;;;5001069;28;20610;-72
2023/05/28 08:39:26;;;;;;;4.15;2.17;;;14.60;99.90;;;;;;5002453;28;20030;-72
2023/05/28 08:41:53;;;;;;;7.47;2.40;;;14.60;99.90;;;;;;5002529;28;20046;-73
2023/05/28 08:44:19;;;;;;;2.38;1.65;;;14.70;99.90;;;;;;5002404;28;20034;-72
2023/05/28 08:46:45;;;;;;;4.72;1.85;;;14.70;99.90;;;;;;4986312;28;20605;-72
2023/05/28 08:49:13;;;;;;;6.82;2.08;;;14.70;99.90;;;;;;4999025;28;20046;-73
2023/05/28 08:51:40;;;;;;;6.47;1.98;;;14.80;99.90;;;;;;5001662;28;20049;-73
2023/05/28 08:54:08;;;;;;;9.05;1.98;;;14.80;99.90;;;;;;5000998;28;20046;-72
2023/05/28 08:56:34;;;;;;;4.45;2.50;;;14.80;99.90;;;;;;5000842;28;20100;-72
2023/05/28 08:59:01;;;;;;;5.65;2.30;;;14.80;99.90;;;;;;5002317;28;20105;-72
2023/05/28 09:01:27;;;;;;;4.55;2.53;;;14.90;99.90;;;;;;5002238;28;20052;-72
2023/05/28 09:03:53;;;;;;;5.15;1.90;;;14.90;99.90;;;;;;4999321;28;20405;-72
2023/05/28 09:06:20;;;;;;;5.93;2.80;;;14.90;99.90;;;;;;4997271;28;20049;-72
2023/05/28 09:08:45;;;;;;;4.38;2.25;;;14.90;99.90;;;;;;4999533;28;20042;-72
2023/05/28 09:11:18;;;;;;;4.72;2.22;;;14.90;99.90;;;;;;5002845;28;20413;-73
2023/05/28 09:13:45;;;;;;;7.25;2.60;;;15.00;99.90;;;;;;5005125;28;20096;-72
2023/05/28 09:16:11;;;;;;;5.72;2.92;;;15.00;99.90;;;;;;5003399;28;20068;-73
2023/05/28 09:18:37;;;;;;;5.07;2.30;;;15.00;99.90;;;;;;5005299;28;20639;-72
2023/05/28 09:21:13;;;;;;;4.82;2.55;;;15.10;99.90;;;;;;5006251;28;20134;-71
2023/05/28 09:23:39;;;;;;;6.20;2.38;;;15.10;99.90;;;;;;5005600;28;20073;-73
2023/05/28 09:26:09;;;;;;;7.70;2.17;;;15.20;99.90;;;;;;4997076;28;20042;-74
2023/05/28 09:28:35;;;;;;;6.60;2.63;;;15.20;99.90;;;;;;4999161;28;20160;-74
2023/05/28 09:31:05;;;;;;;6.95;2.00;;;15.20;99.90;;;;;;5001964;28;20405;-74
2023/05/28 09:33:32;;;;;;;5.20;2.60;;;15.30;99.90;;;;;;5000410;28;20064;-74
2023/05/28 09:36:02;;;;;;;3.60;1.70;;;15.30;99.90;;;;;;5004955;28;20656;-74
2023/05/28 09:38:39;;;;;;;5.15;1.80;;;15.40;99.90;;;;;;4990674;28;20114;-75
2023/05/28 09:41:04;;;;;;;4.78;2.50;;;15.40;99.90;;;;;;5000546;28;20042;-74
2023/05/28 09:43:30;;;;;;;5.95;2.20;;;15.50;99.90;;;;;;5004019;28;20046;-75
2023/05/28 09:46:08;;;;;;;5.40;2.17;;;15.50;99.90;;;;;;4995844;28;20041;-74
2023/05/28 09:48:35;;;;;;;4.75;1.80;;;15.50;99.90;;;;;;5003244;28;20129;-73
2023/05/28 09:51:03;;;;;;;5.88;2.20;;;15.60;99.90;;;;;;5001271;28;20095;-74
2023/05/28 09:53:33;;;;;;;3.72;1.83;;;15.60;99.90;;;;;;4996611;28;20074;-74
2023/05/28 09:55:59;;;;;;;4.75;2.20;;;15.70;99.90;;;;;;5003318;28;20045;-74
2023/05/28 09:58:36;;;;;;;3.78;2.20;;;15.70;99.90;;;;;;4986615;28;20038;-74
2023/05/28 10:01:09;;;;;;;5.57;2.28;;;15.70;99.90;;;;;;5003553;28;20325;-74
2023/05/28 10:03:38;;;;;;;3.33;2.15;;;15.80;99.90;;;;;;5001855;28;20409;-74
2023/05/28 10:06:08;;;;;;;3.35;1.80;;;15.80;99.90;;;;;;5003447;28;20412;-74
2023/05/28 10:08:38;;;;;;;3.47;1.88;;;15.90;99.90;;;;;;5002809;28;20140;-74
2023/05/28 10:11:08;;;;;;;3.67;1.70;;;15.90;99.90;;;;;;5004173;28;20436;-74
2023/05/28 10:13:34;;;;;;;5.00;1.52;;;15.90;99.90;;;;;;5003435;28;20042;-74
2023/05/28 10:16:00;;;;;;;3.78;1.70;;;15.90;99.90;;;;;;5001291;28;20104;-74
2023/05/28 10:18:27;;;;;;;4.95;1.90;;;15.90;99.90;;;;;;5001664;28;20042;-74
2023/05/28 10:20:53;;;;;;;3.47;1.67;;;16.00;99.90;;;;;;5002153;28;20054;-73
2023/05/28 10:23:21;;;;;;;2.90;1.83;;;16.00;99.90;;;;;;5003983;28;20503;-72
2023/05/28 10:25:47;;;;;;;3.13;1.30;;;16.10;99.90;;;;;;5002784;28;20056;-72
2023/05/28 10:28:16;;;;;;;4.78;1.48;;;16.10;99.90;;;;;;4997356;28;20038;-77
2023/05/28 10:30:42;;;;;;;2.42;1.50;;;16.20;99.90;;;;;;4997476;28;20038;-76
2023/05/28 10:33:11;;;;;;;4.35;1.33;;;16.20;99.90;;;;;;4989521;28;20111;-78
2023/05/28 10:35:53;;;;;;;3.22;1.15;;;16.20;99.90;;;;;;4998301;28;20378;-74
2023/05/28 10:38:19;;;;;;;4.28;1.55;;;16.30;99.90;;;;;;4991740;28;20116;-76
2023/05/28 10:40:45;;;;;;;3.78;1.85;;;16.30;99.90;;;;;;4991374;28;20489;-79
2023/05/28 10:43:38;;;;;;;4.25;1.92;;;16.40;99.90;;;;;;4992784;28;20113;-78
2023/05/28 10:46:09;;;;;;;4.50;1.30;;;16.30;99.90;;;;;;4995035;28;20042;-75
2023/05/28 10:48:41;;;;;;;3.88;1.60;;;16.40;99.90;;;;;;4987425;28;20046;-75
2023/05/28 10:51:07;;;;;;;3.28;1.75;;;16.40;99.90;;;;;;5003660;28;20048;-72
2023/05/28 10:53:33;;;;;;;4.88;1.40;;;16.40;99.90;;;;;;4998556;28;20392;-70
2023/05/28 10:56:00;;;;;;;2.22;1.13;;;16.40;99.90;;;;;;4999896;28;20046;-74
2023/05/28 10:58:27;;;;;;;2.50;1.60;;;16.40;99.90;;;;;;4989207;28;20119;-73
2023/05/28 11:00:57;;;;;;;3.70;1.67;;;16.50;99.90;;;;;;4998296;28;20088;-72
2023/05/28 11:03:52;;;;;;;3.75;1.55;;;16.50;99.90;;;;;;4999829;28;20057;-74
2023/05/28 11:06:18;;;;;;;4.63;1.75;;;16.50;99.90;;;;;;4994324;28;20050;-73
2023/05/28 11:08:45;;;;;;;3.45;1.60;;;16.40;99.90;;;;;;4996784;28;20393;-72
2023/05/28 11:11:12;;;;;;;5.13;1.88;;;16.50;99.90;;;;;;4998862;28;20052;-71
2023/05/28 11:13:38;;;;;;;5.90;1.60;;;16.40;99.90;;;;;;5000650;28;20046;-70
2023/05/28 11:16:11;;;;;;;3.00;1.80;;;16.50;99.90;;;;;;5001913;28;20038;-76
2023/05/28 11:18:38;;;;;;;7.45;1.83;;;16.50;99.90;;;;;;4997367;28;20493;-76
2023/05/28 11:21:07;;;;;;;6.25;2.08;;;16.50;99.90;;;;;;5002674;28;20060;-77
2023/05/28 11:23:34;;;;;;;4.93;1.50;;;16.50;99.90;;;;;;4984238;28;20504;-77
2023/05/28 11:26:00;;;;;;;6.13;2.63;;;16.50;99.90;;;;;;5003664;28;20081;-72
2023/05/28 11:28:26;;;;;;;6.80;1.83;;;16.50;99.90;;;;;;5001603;28;20073;-74
2023/05/28 11:30:55;;;;;;;3.00;1.33;;;16.50;99.90;;;;;;4998997;28;20041;-74
2023/05/28 11:33:21;;;;;;;5.60;2.13;;;16.50;99.90;;;;;;5003306;28;20081;-73
2023/05/28 11:35:56;;;;;;;5.38;1.73;;;16.50;99.90;;;;;;4997356;28;20099;-72
2023/05/28 11:38:22;;;;;;;4.18;2.15;;;16.60;99.90;;;;;;5000048;28;20050;-73
2023/05/28 11:40:47;;;;;;;6.38;1.65;;;16.60;99.90;;;;;;4994618;28;20096;-73
2023/05/28 11:43:13;;;;;;;3.63;1.98;;;16.50;99.90;;;;;;4998598;28;20041;-75
2023/05/28 11:45:39;;;;;;;3.25;2.22;;;16.60;99.90;;;;;;5003752;28;20104;-73
2023/05/28 11:48:12;;;;;;;6.35;2.30;;;16.60;99.90;;;;;;5000487;28;20708;-73
2023/05/28 11:50:37;;;;;;;4.82;1.67;;;16.70;99.90;;;;;;5003994;28;20121;-73
2023/05/28 11:53:03;;;;;;;3.95;1.58;;;16.70;99.90;;;;;;4996152;28;20572;-74
2023/05/28 11:55:29;;;;;;;2.75;1.40;;;16.70;99.90;;;;;;5003707;28;20042;-73
2023/05/28 11:57:55;;;;;;;3.38;1.88;;;16.70;99.90;;;;;;4994028;28;20545;-77
2023/05/28 12:00:31;;;;;;;4.10;1.38;;;16.80;99.90;;;;;;5003273;28;20145;-76
2023/05/28 12:02:57;;;;;;;2.67;1.60;;;16.80;99.90;;;;;;5002556;28;20588;-78
2023/05/28 12:05:23;;;;;;;6.90;1.58;;;16.80;99.90;;;;;;5002640;28;20062;-78
2023/05/28 12:07:50;;;;;;;5.25;1.65;;;16.80;99.90;;;;;;5002373;28;20034;-76
2023/05/28 12:10:20;;;;;;;3.78;1.42;;;16.80;99.90;;;;;;5002773;28;20038;-78
2023/05/28 12:12:51;;;;;;;4.97;1.85;;;16.80;99.90;;;;;;5003141;28;20046;-73
2023/05/28 12:15:18;;;;;;;5.85;1.67;;;16.80;99.90;;;;;;5000354;28;20046;-73
2023/05/28 12:17:47;;;;;;;4.85;2.28;;;16.80;99.90;;;;;;5003184;28;20044;-73
2023/05/28 12:20:13;;;;;;;4.60;1.95;;;16.80;99.90;;;;;;4992729;28;20593;-76
2023/05/28 12:22:39;;;;;;;7.45;2.88;;;16.80;99.90;;;;;;4993598;28;20033;-73
2023/05/28 12:25:06;;;;;;;2.70;1.60;;;16.80;99.90;;;;;;5002185;28;20084;-73
2023/05/28 12:27:32;;;;;;;4.43;1.80;;;16.70;99.90;;;;;;5002211;28;20200;-73
2023/05/28 12:29:57;;;;;;;7.55;2.08;;;16.70;99.90;;;;;;5002326;28;20543;-73
2023/05/28 12:32:23;;;;;;;6.53;1.98;;;16.70;99.90;;;;;;5003829;28;20408;-73
2023/05/28 12:34:51;;;;;;;3.85;1.55;;;16.80;99.90;;;;;;5002721;28;20033;-73
2023/05/28 12:37:20;;;;;;;5.93;1.92;;;16.80;99.90;;;;;;4997319;28;20041;-73
2023/05/28 12:39:46;;;;;;;3.88;1.60;;;16.80;99.90;;;;;;5000022;28;20049;-74
2023/05/28 12:42:11;;;;;;;3.58;1.90;;;16.80;99.90;;;;;;5001411;28;20468;-73